Time;durP1;ratioP1;P1;durP2;ratioP2;P2;SDS_P1;SDS_P2;PMS_P1;PMS_P2;Temp;Humidity;BMP_temperature;BMP_pressure;BME280_temperature;BME280_humidity;BME280_pressure;Samples;Min_cycle;Max_cycle;Signal;HPM_P1;HPM_P2
2022/10/24 00:00:32;;;;;;;6.40;2.93;;;;;;;;;;5092994;28;20211;-83
2022/10/24 00:02:59;;;;;;;6.93;2.80;;;;;;;;;;5092616;28;20240;-83
2022/10/24 00:05:27;;;;;;;11.27;4.00;;;;;;;;;;5092982;28;20209;-83
2022/10/24 00:07:54;;;;;;;4.30;2.90;;;;;;;;;;5091931;28;20228;-83
2022/10/24 00:10:21;;;;;;;5.93;3.13;;;;;;;;;;5092990;28;20201;-83
2022/10/24 00:12:48;;;;;;;5.50;2.70;;;;;;;;;;5092642;28;20239;-83
2022/10/24 00:15:16;;;;;;;8.17;3.60;;;;;;;;;;5092903;28;20201;-84
2022/10/24 00:17:44;;;;;;;6.43;2.77;;;;;;;;;;5092165;28;20549;-83
2022/10/24 00:20:12;;;;;;;5.80;3.07;;;;;;;;;;5092637;28;20193;-83
2022/10/24 00:22:39;;;;;;;8.57;3.07;;;;;;;;;;5091602;28;20243;-83
2022/10/24 00:25:06;;;;;;;9.60;2.60;;;;;;;;;;5076629;28;20837;-83
2022/10/24 00:27:35;;;;;;;5.90;3.27;;;;;;;;;;5091557;28;20236;-84
2022/10/24 00:30:02;;;;;;;5.30;2.60;;;;;;;;;;5092383;28;20565;-83
2022/10/24 00:32:29;;;;;;;7.43;3.20;;;;;;;;;;5091801;28;20228;-83
2022/10/24 00:34:57;;;;;;;8.50;3.17;;;;;;;;;;5092430;28;20208;-83
2022/10/24 00:37:24;;;;;;;5.67;3.00;;;;;;;;;;5092039;28;20228;-84
2022/10/24 00:39:51;;;;;;;6.80;2.97;;;;;;;;;;5092183;28;20208;-84
2022/10/24 00:42:19;;;;;;;9.33;2.67;;;;;;;;;;5092022;28;20235;-84
2022/10/24 00:44:47;;;;;;;6.90;2.90;;;;;;;;;;5086987;28;20202;-84
2022/10/24 00:47:16;;;;;;;6.10;2.70;;;;;;;;;;5088811;28;20232;-84
2022/10/24 00:49:45;;;;;;;5.80;2.50;;;;;;;;;;5092189;28;20240;-85
2022/10/24 00:52:14;;;;;;;3.00;2.70;;;;;;;;;;5076753;28;20232;-84
2022/10/24 00:54:42;;;;;;;4.20;2.30;;;;;;;;;;5091881;28;20207;-84
2022/10/24 00:57:12;;;;;;;4.93;2.57;;;;;;;;;;5071626;28;20230;-84
2022/10/24 00:59:40;;;;;;;7.03;2.53;;;;;;;;;;5084006;28;20212;-84
2022/10/24 01:02:08;;;;;;;4.80;2.30;;;;;;;;;;5091758;28;20281;-84
2022/10/24 01:04:35;;;;;;;3.50;2.27;;;;;;;;;;5089768;28;20204;-84
2022/10/24 01:07:12;;;;;;;3.33;2.13;;;;;;;;;;5091564;28;20232;-84
2022/10/24 01:09:45;;;;;;;3.87;2.40;;;;;;;;;;5091425;28;20707;-84
2022/10/24 01:12:20;;;;;;;3.37;2.13;;;;;;;;;;5091737;28;20228;-83
2022/10/24 01:14:52;;;;;;;2.70;2.37;;;;;;;;;;5092169;28;20195;-84
2022/10/24 01:17:23;;;;;;;4.07;2.37;;;;;;;;;;5091442;28;20232;-84
2022/10/24 01:20:14;;;;;;;6.03;2.10;;;;;;;;;;5091524;28;20197;-83
2022/10/24 01:22:47;;;;;;;3.67;2.33;;;;;;;;;;5091691;28;20235;-84
2022/10/24 01:25:18;;;;;;;3.17;2.10;;;;;;;;;;5091957;28;20189;-84
2022/10/24 01:27:54;;;;;;;3.70;2.40;;;;;;;;;;5090817;28;20247;-84
2022/10/24 01:30:22;;;;;;;3.80;2.20;;;;;;;;;;5091667;28;20220;-83
2022/10/24 01:32:56;;;;;;;5.70;2.27;;;;;;;;;;5091308;28;20236;-84
2022/10/24 01:35:34;;;;;;;4.03;2.27;;;;;;;;;;5091778;28;20629;-84
2022/10/24 01:38:03;;;;;;;3.07;2.20;;;;;;;;;;5091118;28;20332;-84
2022/10/24 01:40:33;;;;;;;8.97;3.50;;;;;;;;;;5092014;28;20208;-84
2022/10/24 01:43:01;;;;;;;5.93;2.73;;;;;;;;;;5091272;28;20715;-83
2022/10/24 01:45:33;;;;;;;10.67;3.53;;;;;;;;;;5092362;28;20208;-92
2022/10/24 01:48:02;;;;;;;7.73;2.90;;;;;;;;;;5091781;28;20229;-92
2022/10/24 01:50:29;;;;;;;10.83;3.60;;;;;;;;;;5092495;28;20233;-92
2022/10/24 01:52:58;;;;;;;9.60;3.53;;;;;;;;;;5091774;28;20232;-92
2022/10/24 01:55:25;;;;;;;11.47;3.50;;;;;;;;;;5072850;28;20248;-93
2022/10/24 01:57:52;;;;;;;11.67;4.23;;;;;;;;;;5086973;28;20243;-93
2022/10/24 02:00:21;;;;;;;11.27;4.23;;;;;;;;;;5091979;28;20197;-93
2022/10/24 02:02:52;;;;;;;8.63;4.40;;;;;;;;;;5091825;28;20241;-92
2022/10/24 02:05:21;;;;;;;12.17;4.03;;;;;;;;;;5092283;28;20189;-93
2022/10/24 02:07:49;;;;;;;11.17;4.27;;;;;;;;;;5095538;28;20247;-93
2022/10/24 02:10:17;;;;;;;12.47;4.70;;;;;;;;;;5096174;28;20236;-93
2022/10/24 02:12:46;;;;;;;12.93;5.07;;;;;;;;;;5095615;28;20232;-93
2022/10/24 02:15:16;;;;;;;15.40;4.97;;;;;;;;;;5096507;28;20201;-93
2022/10/24 02:17:43;;;;;;;11.60;4.60;;;;;;;;;;5095455;28;20236;-93
2022/10/24 02:20:12;;;;;;;10.30;4.53;;;;;;;;;;5095774;28;20583;-92
2022/10/24 02:22:43;;;;;;;10.70;4.60;;;;;;;;;;5095626;28;20228;-94
2022/10/24 02:25:11;;;;;;;10.83;4.33;;;;;;;;;;5095792;28;20657;-93
2022/10/24 02:27:39;;;;;;;12.27;4.03;;;;;;;;;;5095125;28;20233;-92
2022/10/24 02:30:08;;;;;;;9.63;4.10;;;;;;;;;;5075498;28;20677;-93
2022/10/24 02:32:37;;;;;;;7.67;3.63;;;;;;;;;;5074836;28;20237;-93
2022/10/24 02:35:06;;;;;;;13.73;4.27;;;;;;;;;;5075031;28;20201;-93
2022/10/24 02:37:35;;;;;;;12.33;4.70;;;;;;;;;;5074869;28;20225;-93
2022/10/24 02:40:03;;;;;;;13.20;3.97;;;;;;;;;;5075975;28;20202;-93
2022/10/24 02:42:31;;;;;;;11.60;3.63;;;;;;;;;;5087945;28;20232;-94
2022/10/24 02:44:58;;;;;;;12.13;4.23;;;;;;;;;;5095843;28;20696;-93
2022/10/24 02:47:26;;;;;;;9.13;3.77;;;;;;;;;;5095291;28;20240;-93
2022/10/24 02:49:54;;;;;;;11.67;4.37;;;;;;;;;;5096134;28;20689;-94
2022/10/24 02:52:22;;;;;;;9.10;3.80;;;;;;;;;;5095360;28;20228;-93
2022/10/24 02:54:50;;;;;;;7.40;3.67;;;;;;;;;;5095706;28;20216;-94
2022/10/24 02:57:17;;;;;;;9.17;3.50;;;;;;;;;;5095337;28;20232;-94
2022/10/24 02:59:44;;;;;;;7.37;3.23;;;;;;;;;;5095603;28;20224;-93
2022/10/24 03:02:12;;;;;;;7.53;3.30;;;;;;;;;;5094444;28;20229;-92
2022/10/24 03:04:39;;;;;;;12.83;3.57;;;;;;;;;;5085789;28;20204;-93
2022/10/24 03:07:06;;;;;;;7.30;3.30;;;;;;;;;;5103098;27;20720;-93
2022/10/24 03:09:33;;;;;;;7.87;3.20;;;;;;;;;;5095966;28;20228;-91
2022/10/24 03:12:02;;;;;;;6.50;3.43;;;;;;;;;;5095327;27;20599;-92
2022/10/24 03:14:29;;;;;;;7.60;2.93;;;;;;;;;;5095623;28;20205;-92
2022/10/24 03:16:56;;;;;;;5.63;2.90;;;;;;;;;;5093997;27;20228;-93
2022/10/24 03:19:23;;;;;;;10.70;3.60;;;;;;;;;;5095313;28;20225;-94
2022/10/24 03:21:50;;;;;;;8.57;3.07;;;;;;;;;;5094368;28;20236;-92
2022/10/24 03:24:17;;;;;;;8.00;3.50;;;;;;;;;;5090087;28;20572;-92
2022/10/24 03:26:44;;;;;;;7.60;3.83;;;;;;;;;;5091689;28;20212;-92
2022/10/24 03:29:13;;;;;;;6.10;3.37;;;;;;;;;;5087249;28;20601;-93
2022/10/24 03:31:41;;;;;;;6.10;3.03;;;;;;;;;;5093903;28;20239;-91
2022/10/24 03:34:08;;;;;;;7.17;3.63;;;;;;;;;;5094577;28;20201;-92
2022/10/24 03:36:35;;;;;;;10.07;3.20;;;;;;;;;;5094240;28;20209;-93
2022/10/24 03:39:02;;;;;;;10.63;2.87;;;;;;;;;;5093899;28;20228;-92
2022/10/24 03:41:29;;;;;;;12.10;3.80;;;;;;;;;;5093453;28;20219;-90
2022/10/24 03:43:57;;;;;;;8.90;2.83;;;;;;;;;;5093940;28;20205;-91
2022/10/24 03:46:26;;;;;;;7.17;3.10;;;;;;;;;;5093919;28;20212;-91
2022/10/24 03:48:53;;;;;;;9.33;2.50;;;;;;;;;;5093168;28;20256;-91
2022/10/24 03:51:20;;;;;;;5.37;2.50;;;;;;;;;;5093925;28;20205;-91
2022/10/24 03:53:47;;;;;;;5.00;2.90;;;;;;;;;;5093636;28;20236;-92
2022/10/24 03:56:14;;;;;;;5.47;3.27;;;;;;;;;;5093775;28;20564;-92
2022/10/24 03:58:41;;;;;;;8.27;2.57;;;;;;;;;;5092405;28;20232;-92
2022/10/24 04:01:15;;;;;;;11.17;3.10;;;;;;;;;;5094026;28;20201;-92
2022/10/24 04:03:44;;;;;;;9.63;2.90;;;;;;;;;;5093446;28;20315;-92
2022/10/24 04:06:11;;;;;;;5.77;2.43;;;;;;;;;;5093658;28;20197;-92
2022/10/24 04:08:38;;;;;;;6.53;2.60;;;;;;;;;;5092827;28;20255;-92
2022/10/24 04:11:06;;;;;;;8.77;3.03;;;;;;;;;;5093473;28;20225;-92
2022/10/24 04:13:33;;;;;;;9.17;2.50;;;;;;;;;;5093048;28;20703;-91
2022/10/24 04:16:00;;;;;;;5.80;3.00;;;;;;;;;;5092957;28;20661;-92
2022/10/24 04:18:27;;;;;;;8.93;2.80;;;;;;;;;;5085616;28;20233;-93
2022/10/24 04:20:56;;;;;;;5.60;2.70;;;;;;;;;;5087096;28;20215;-92
2022/10/24 04:23:23;;;;;;;8.10;2.63;;;;;;;;;;5092751;28;20599;-92
2022/10/24 04:25:50;;;;;;;8.53;2.90;;;;;;;;;;5093027;28;20564;-92
2022/10/24 04:28:17;;;;;;;16.00;3.53;;;;;;;;;;5091603;28;20240;-92
2022/10/24 04:30:44;;;;;;;12.73;3.17;;;;;;;;;;5093260;28;20230;-92
2022/10/24 04:33:11;;;;;;;6.70;3.23;;;;;;;;;;5092546;28;20240;-92
2022/10/24 04:35:38;;;;;;;11.53;3.37;;;;;;;;;;5093300;28;20201;-92
2022/10/24 04:38:08;;;;;;;10.50;2.90;;;;;;;;;;5088004;28;20764;-92
2022/10/24 04:40:35;;;;;;;5.40;3.23;;;;;;;;;;5092889;28;20555;-93
2022/10/24 04:43:02;;;;;;;5.63;2.73;;;;;;;;;;5092436;28;20244;-92
2022/10/24 04:45:29;;;;;;;7.07;2.97;;;;;;;;;;5093218;28;20204;-92
2022/10/24 04:47:56;;;;;;;8.33;2.73;;;;;;;;;;5092848;28;20836;-92
2022/10/24 04:50:25;;;;;;;4.77;2.73;;;;;;;;;;5093156;28;20221;-92
2022/10/24 04:52:53;;;;;;;13.40;3.43;;;;;;;;;;5092585;28;20257;-94
2022/10/24 04:55:21;;;;;;;5.47;3.13;;;;;;;;;;5093181;28;20200;-93
2022/10/24 04:57:48;;;;;;;9.03;3.07;;;;;;;;;;5092290;28;20240;-93
2022/10/24 05:00:16;;;;;;;7.93;2.97;;;;;;;;;;5092766;28;20204;-93
2022/10/24 05:02:43;;;;;;;7.80;2.80;;;;;;;;;;5092293;28;20235;-92
2022/10/24 05:05:10;;;;;;;7.50;2.90;;;;;;;;;;5092724;28;20209;-92
2022/10/24 05:07:37;;;;;;;10.63;2.87;;;;;;;;;;5091778;28;20236;-94
2022/10/24 05:10:04;;;;;;;12.83;3.27;;;;;;;;;;5080665;28;20252;-96
2022/10/24 05:12:33;;;;;;;11.00;2.93;;;;;;;;;;5092519;28;20231;-92
2022/10/24 05:15:00;;;;;;;7.07;2.73;;;;;;;;;;5092109;28;20196;-90
2022/10/24 05:17:27;;;;;;;7.63;2.97;;;;;;;;;;5091996;28;20244;-93
2022/10/24 05:19:54;;;;;;;9.63;3.30;;;;;;;;;;5092427;28;20208;-91
2022/10/24 05:22:21;;;;;;;12.37;3.43;;;;;;;;;;5091794;28;20232;-89
2022/10/24 05:24:48;;;;;;;11.60;3.73;;;;;;;;;;5092042;28;20208;-89
2022/10/24 05:27:15;;;;;;;8.80;2.90;;;;;;;;;;5091647;28;20232;-89
2022/10/24 05:29:44;;;;;;;5.93;3.13;;;;;;;;;;5091594;28;20229;-90
2022/10/24 05:32:12;;;;;;;9.27;3.20;;;;;;;;;;5087984;28;20692;-90
2022/10/24 05:34:42;;;;;;;6.53;2.80;;;;;;;;;;5091951;28;20619;-90
2022/10/24 05:37:09;;;;;;;9.40;3.47;;;;;;;;;;5091766;28;20236;-91
2022/10/24 05:39:36;;;;;;;8.93;3.23;;;;;;;;;;5092625;28;20228;-90
2022/10/24 05:42:03;;;;;;;9.57;3.33;;;;;;;;;;5095807;28;20232;-91
2022/10/24 05:44:30;;;;;;;6.40;3.30;;;;;;;;;;5096310;28;20207;-90
2022/10/24 05:46:59;;;;;;;11.33;3.53;;;;;;;;;;5095413;28;20592;-91
2022/10/24 05:49:26;;;;;;;9.40;3.07;;;;;;;;;;5095816;28;20229;-90
2022/10/24 05:51:53;;;;;;;9.67;2.87;;;;;;;;;;5095555;28;20235;-91
2022/10/24 05:54:23;;;;;;;7.57;2.80;;;;;;;;;;5096013;28;20223;-92
2022/10/24 05:56:50;;;;;;;7.40;2.80;;;;;;;;;;5095488;28;20247;-91
2022/10/24 05:59:17;;;;;;;10.93;3.27;;;;;;;;;;5095322;28;20221;-92
2022/10/24 06:01:44;;;;;;;8.93;2.67;;;;;;;;;;5095159;28;20209;-91
2022/10/24 06:04:12;;;;;;;5.90;2.70;;;;;;;;;;5095802;28;20212;-91
2022/10/24 06:06:40;;;;;;;9.17;3.10;;;;;;;;;;5095019;28;20197;-91
2022/10/24 06:09:07;;;;;;;11.57;3.33;;;;;;;;;;5095455;28;20564;-91
2022/10/24 06:11:34;;;;;;;7.40;2.70;;;;;;;;;;5094870;28;20227;-90
2022/10/24 06:14:02;;;;;;;10.17;3.07;;;;;;;;;;5095717;28;20205;-92
2022/10/24 06:16:29;;;;;;;12.23;2.70;;;;;;;;;;5095030;28;20208;-88
2022/10/24 06:18:56;;;;;;;8.40;3.20;;;;;;;;;;5095287;28;20231;-89
2022/10/24 06:21:25;;;;;;;7.50;2.93;;;;;;;;;;5095754;28;20208;-89
2022/10/24 06:23:52;;;;;;;7.57;2.83;;;;;;;;;;5094777;28;20598;-91
2022/10/24 06:26:20;;;;;;;7.57;3.10;;;;;;;;;;5095426;28;20211;-90
2022/10/24 06:28:47;;;;;;;10.90;3.00;;;;;;;;;;5094067;28;20237;-91
2022/10/24 06:31:14;;;;;;;8.23;4.13;;;;;;;;;;5095185;28;20231;-90
2022/10/24 06:33:41;;;;;;;6.00;3.20;;;;;;;;;;5094673;28;20232;-91
2022/10/24 06:36:09;;;;;;;8.53;2.73;;;;;;;;;;5095235;28;20564;-90
2022/10/24 06:38:38;;;;;;;6.47;2.67;;;;;;;;;;5091567;28;20240;-90
2022/10/24 06:41:08;;;;;;;9.20;3.00;;;;;;;;;;5094910;28;20204;-90
2022/10/24 06:43:36;;;;;;;9.00;3.07;;;;;;;;;;5093919;28;20599;-91
2022/10/24 06:46:05;;;;;;;5.30;3.13;;;;;;;;;;5093624;28;20266;-91
2022/10/24 06:48:33;;;;;;;16.13;3.57;;;;;;;;;;5093631;28;20315;-90
2022/10/24 06:51:00;;;;;;;7.50;3.47;;;;;;;;;;5093554;28;20217;-91
2022/10/24 06:53:27;;;;;;;14.67;3.73;;;;;;;;;;5093535;28;20236;-91
2022/10/24 06:55:55;;;;;;;7.50;3.00;;;;;;;;;;5094549;28;20197;-91
2022/10/24 06:58:23;;;;;;;11.67;3.47;;;;;;;;;;5094653;28;20239;-92
2022/10/24 07:00:50;;;;;;;15.87;3.40;;;;;;;;;;5094809;28;20711;-90
2022/10/24 07:03:17;;;;;;;12.63;4.20;;;;;;;;;;5093980;28;20224;-90
2022/10/24 07:05:44;;;;;;;8.90;3.80;;;;;;;;;;5094175;28;20203;-90
2022/10/24 07:08:12;;;;;;;12.20;3.30;;;;;;;;;;5093105;28;20236;-90
2022/10/24 07:10:39;;;;;;;11.60;3.67;;;;;;;;;;5093364;28;20216;-91
2022/10/24 07:13:07;;;;;;;12.47;3.50;;;;;;;;;;5093378;28;20233;-90
2022/10/24 07:15:34;;;;;;;8.87;3.30;;;;;;;;;;5094516;28;20209;-92
2022/10/24 07:18:01;;;;;;;6.57;3.37;;;;;;;;;;5093421;28;20236;-92
2022/10/24 07:20:28;;;;;;;11.03;3.50;;;;;;;;;;5094440;28;20206;-92
2022/10/24 07:22:56;;;;;;;9.73;3.60;;;;;;;;;;5093618;28;20236;-92
2022/10/24 07:25:24;;;;;;;10.67;3.30;;;;;;;;;;5094464;28;20212;-92
2022/10/24 07:27:53;;;;;;;14.50;3.80;;;;;;;;;;5093142;28;20243;-93
2022/10/24 07:30:22;;;;;;;10.63;3.07;;;;;;;;;;5093968;28;20213;-92
2022/10/24 07:32:49;;;;;;;9.80;3.47;;;;;;;;;;5092724;28;20728;-92
2022/10/24 07:35:16;;;;;;;13.50;3.90;;;;;;;;;;5093522;28;20193;-93
2022/10/24 07:37:43;;;;;;;15.73;4.00;;;;;;;;;;5093192;28;20252;-92
2022/10/24 07:40:11;;;;;;;11.00;3.67;;;;;;;;;;5094328;28;20209;-91
2022/10/24 07:42:39;;;;;;;9.87;2.80;;;;;;;;;;5093304;28;20248;-92
2022/10/24 07:45:07;;;;;;;12.53;3.47;;;;;;;;;;5094014;28;20189;-89
2022/10/24 07:47:36;;;;;;;14.63;4.60;;;;;;;;;;5092187;28;20228;-90
2022/10/24 07:50:04;;;;;;;7.90;3.20;;;;;;;;;;5100574;22;20224;-81
2022/10/24 07:52:31;;;;;;;12.77;4.33;;;;;;;;;;5084184;28;20600;-78
2022/10/24 07:54:58;;;;;;;6.30;3.60;;;;;;;;;;5073862;28;20664;-79
2022/10/24 07:57:25;;;;;;;10.87;3.47;;;;;;;;;;5072485;28;20232;-79
2022/10/24 07:59:53;;;;;;;13.47;3.37;;;;;;;;;;5072797;28;20229;-79
2022/10/24 08:02:20;;;;;;;9.63;3.23;;;;;;;;;;5072129;28;20316;-80
2022/10/24 08:04:48;;;;;;;10.53;3.20;;;;;;;;;;5056649;28;20217;-79
2022/10/24 08:07:15;;;;;;;11.80;3.50;;;;;;;;;;5052218;28;20592;-79
2022/10/24 08:09:44;;;;;;;8.50;3.20;;;;;;;;;;5050991;28;20230;-79
2022/10/24 08:12:11;;;;;;;6.50;3.43;;;;;;;;;;5052055;28;20234;-79
2022/10/24 08:14:38;;;;;;;9.27;3.80;;;;;;;;;;5052295;28;20202;-80
2022/10/24 08:17:05;;;;;;;13.17;4.00;;;;;;;;;;5052015;28;20233;-80
2022/10/24 08:19:33;;;;;;;8.97;3.50;;;;;;;;;;5052174;28;20230;-79
2022/10/24 08:22:01;;;;;;;7.17;3.07;;;;;;;;;;5051996;28;20232;-79
2022/10/24 08:24:28;;;;;;;5.93;3.07;;;;;;;;;;5052113;28;20555;-80
2022/10/24 08:26:55;;;;;;;7.07;3.17;;;;;;;;;;5051893;28;20240;-81
2022/10/24 08:29:24;;;;;;;6.10;3.63;;;;;;;;;;5051889;28;20232;-82
2022/10/24 08:31:51;;;;;;;5.73;2.70;;;;;;;;;;5051462;28;20234;-81
2022/10/24 08:34:19;;;;;;;12.23;3.27;;;;;;;;;;5052321;28;20206;-81
2022/10/24 08:36:46;;;;;;;6.83;3.60;;;;;;;;;;5051697;28;20940;-81
2022/10/24 08:39:15;;;;;;;7.13;3.00;;;;;;;;;;5051941;28;20760;-82
2022/10/24 08:41:45;;;;;;;7.43;3.20;;;;;;;;;;5051756;28;20205;-82
2022/10/24 08:44:16;;;;;;;8.83;3.37;;;;;;;;;;5051883;28;20202;-81
2022/10/24 08:46:47;;;;;;;7.80;3.10;;;;;;;;;;5051340;28;20191;-81
2022/10/24 08:49:18;;;;;;;9.80;2.60;;;;;;;;;;5051754;28;20307;-82
2022/10/24 08:51:47;;;;;;;8.77;3.67;;;;;;;;;;5051459;28;20237;-82
2022/10/24 08:54:18;;;;;;;12.30;3.40;;;;;;;;;;5051788;28;20205;-81
2022/10/24 08:56:45;;;;;;;5.77;3.03;;;;;;;;;;5038084;28;20210;-81
2022/10/24 08:59:13;;;;;;;8.03;2.73;;;;;;;;;;5031676;28;20233;-81
2022/10/24 09:01:43;;;;;;;7.83;2.87;;;;;;;;;;5031247;28;20207;-81
2022/10/24 09:04:11;;;;;;;8.40;3.20;;;;;;;;;;5046789;28;20201;-81
2022/10/24 09:06:39;;;;;;;10.03;3.73;;;;;;;;;;5051018;28;20198;-82
2022/10/24 09:09:11;;;;;;;8.57;2.73;;;;;;;;;;5050375;28;20230;-80
2022/10/24 09:11:44;;;;;;;4.83;3.03;;;;;;;;;;5050658;28;20221;-81
2022/10/24 09:14:13;;;;;;;8.27;2.87;;;;;;;;;;5051186;28;20196;-80
2022/10/24 09:16:42;;;;;;;6.00;3.03;;;;;;;;;;5050766;28;20206;-81
2022/10/24 09:19:11;;;;;;;6.60;2.53;;;;;;;;;;5051044;28;20214;-81
2022/10/24 09:21:40;;;;;;;11.17;3.37;;;;;;;;;;5052213;28;20209;-82
2022/10/24 09:24:08;;;;;;;6.43;2.70;;;;;;;;;;5051587;28;20229;-81
2022/10/24 09:26:39;;;;;;;8.70;2.53;;;;;;;;;;5044371;28;20206;-81
2022/10/24 09:29:07;;;;;;;7.87;2.47;;;;;;;;;;5051024;28;20643;-80
2022/10/24 09:31:35;;;;;;;14.97;2.90;;;;;;;;;;5050895;28;20222;-81
2022/10/24 09:34:03;;;;;;;10.90;2.73;;;;;;;;;;5050181;28;20186;-81
2022/10/24 09:36:30;;;;;;;7.33;2.67;;;;;;;;;;5030896;28;20243;-83
2022/10/24 09:38:57;;;;;;;7.23;3.13;;;;;;;;;;5031321;28;20227;-81
2022/10/24 09:41:25;;;;;;;4.87;2.63;;;;;;;;;;5031243;28;20187;-81
2022/10/24 09:43:54;;;;;;;9.97;2.80;;;;;;;;;;5030738;28;20238;-81
2022/10/24 09:46:24;;;;;;;12.00;2.50;;;;;;;;;;5044386;28;20220;-81
2022/10/24 09:48:55;;;;;;;3.67;2.00;;;;;;;;;;5050104;28;20233;-81
2022/10/24 09:51:26;;;;;;;4.47;2.47;;;;;;;;;;5051334;28;20206;-81
2022/10/24 09:54:01;;;;;;;6.40;2.70;;;;;;;;;;5050496;28;20230;-80
2022/10/24 09:56:34;;;;;;;11.27;2.93;;;;;;;;;;5050916;28;20205;-80
2022/10/24 09:59:18;;;;;;;3.20;2.50;;;;;;;;;;5050720;28;20757;-80
2022/10/24 10:01:46;;;;;;;6.03;2.50;;;;;;;;;;5050814;28;20204;-80
2022/10/24 10:04:16;;;;;;;4.80;2.63;;;;;;;;;;5050999;28;20198;-80
2022/10/24 10:06:44;;;;;;;6.65;2.45;;;;;;;;;;5048008;28;20293;-81
2022/10/24 10:09:13;;;;;;;5.97;2.05;;;;;;;;;;5050891;28;20233;-80
2022/10/24 10:11:41;;;;;;;6.82;2.90;;;;;;;;;;5049747;28;20222;-81
2022/10/24 10:14:20;;;;;;;5.60;2.45;;;;;;;;;;5050938;28;20510;-81
2022/10/24 10:16:58;;;;;;;6.47;2.15;;;;;;;;;;5050067;28;20201;-81
2022/10/24 10:19:25;;;;;;;4.20;2.30;;;;;;;;;;5059223;28;20218;-79
2022/10/24 10:21:54;;;;;;;5.53;2.22;;;;;;;;;;5050448;28;20233;-81
2022/10/24 10:24:25;;;;;;;7.43;2.15;;;;;;;;;;5050728;28;20198;-79
2022/10/24 10:26:52;;;;;;;6.57;2.35;;;;;;;;;;5051018;28;20604;-80
2022/10/24 10:29:23;;;;;;;9.13;2.88;;;;;;;;;;5054219;28;20615;-80
2022/10/24 10:31:53;;;;;;;5.53;1.88;;;;;;;;;;5053707;28;20246;-81
2022/10/24 10:34:26;;;;;;;8.20;2.42;;;;;;;;;;5050012;28;20214;-81
2022/10/24 10:37:17;;;;;;;5.85;2.90;;;;;;;;;;5033897;28;20242;-80
2022/10/24 10:39:51;;;;;;;5.07;2.30;;;;;;;;;;5014531;28;20233;-80
2022/10/24 10:42:22;;;;;;;2.67;1.50;;;;;;;;;;5041042;28;20221;-81
2022/10/24 10:44:55;;;;;;;5.63;2.10;;;;;;;;;;5034626;28;20214;-81
2022/10/24 10:47:34;;;;;;;5.15;2.08;;;;;;;;;;5033785;28;20254;-80
2022/10/24 10:50:02;;;;;;;4.55;2.63;;;;;;;;;;5033979;28;20242;-81
2022/10/24 10:52:32;;;;;;;6.90;2.58;;;;;;;;;;5033595;28;20241;-80
2022/10/24 10:55:06;;;;;;;4.43;2.03;;;;;;;;;;5034135;28;20207;-81
2022/10/24 10:57:38;;;;;;;2.60;1.92;;;;;;;;;;5056057;28;20700;-80
2022/10/24 11:00:08;;;;;;;6.78;2.35;;;;;;;;;;5056854;28;20602;-81
2022/10/24 11:02:42;;;;;;;3.85;2.03;;;;;;;;;;5053443;28;20222;-80
2022/10/24 11:05:16;;;;;;;4.50;2.20;;;;;;;;;;5053566;28;20673;-80
2022/10/24 11:07:46;;;;;;;3.15;1.52;;;;;;;;;;5052965;28;20920;-81
2022/10/24 11:10:16;;;;;;;5.47;2.22;;;;;;;;;;5053641;28;20221;-81
2022/10/24 11:12:44;;;;;;;4.38;1.98;;;;;;;;;;5053213;28;20234;-79
2022/10/24 11:15:17;;;;;;;6.88;1.95;;;;;;;;;;5053349;28;20210;-80
2022/10/24 11:17:49;;;;;;;5.28;1.98;;;;;;;;;;5052844;28;20234;-81
2022/10/24 11:20:18;;;;;;;1.75;1.65;;;;;;;;;;5052897;28;20244;-81
2022/10/24 11:22:48;;;;;;;7.30;2.40;;;;;;;;;;5050292;28;20230;-80
2022/10/24 11:25:21;;;;;;;4.97;1.70;;;;;;;;;;5053398;28;20214;-81
2022/10/24 11:27:50;;;;;;;4.30;2.03;;;;;;;;;;5052718;28;20233;-81
2022/10/24 11:30:19;;;;;;;5.57;2.10;;;;;;;;;;5053159;28;20222;-80
2022/10/24 11:32:49;;;;;;;7.28;1.80;;;;;;;;;;5052731;28;20593;-80
2022/10/24 11:35:27;;;;;;;6.82;2.10;;;;;;;;;;5060265;28;20185;-80
2022/10/24 11:37:57;;;;;;;4.80;1.80;;;;;;;;;;5065338;28;20230;-80
2022/10/24 11:40:25;;;;;;;5.57;1.90;;;;;;;;;;5052955;28;20705;-81
2022/10/24 11:42:54;;;;;;;4.82;1.80;;;;;;;;;;5052573;28;20239;-81
2022/10/24 11:45:23;;;;;;;5.72;2.13;;;;;;;;;;5053119;28;20210;-80
2022/10/24 11:47:55;;;;;;;4.32;1.65;;;;;;;;;;5052147;28;20252;-81
2022/10/24 11:50:26;;;;;;;3.80;2.20;;;;;;;;;;5052641;28;20242;-80
2022/10/24 11:52:55;;;;;;;7.18;2.22;;;;;;;;;;5052453;28;20234;-83
2022/10/24 11:55:23;;;;;;;3.35;2.17;;;;;;;;;;5052483;28;20224;-81
2022/10/24 11:57:52;;;;;;;6.22;2.05;;;;;;;;;;5052013;28;20705;-80
2022/10/24 12:00:21;;;;;;;3.95;1.77;;;;;;;;;;5052471;28;20720;-82
2022/10/24 12:03:08;;;;;;;5.75;2.00;;;;;;;;;;5052117;28;20313;-81
2022/10/24 12:05:53;;;;;;;4.65;1.85;;;;;;;;;;5052527;28;20528;-81
2022/10/24 12:08:29;;;;;;;4.35;1.77;;;;;;;;;;5051623;28;20244;-82
2022/10/24 12:11:02;;;;;;;7.45;1.88;;;;;;;;;;5052482;28;20193;-82
2022/10/24 12:13:53;;;;;;;4.13;2.15;;;;;;;;;;5051779;28;20241;-80
2022/10/24 12:16:26;;;;;;;4.45;1.80;;;;;;;;;;5031621;28;20674;-81
2022/10/24 12:18:58;;;;;;;3.97;1.63;;;;;;;;;;5031624;28;20234;-81
2022/10/24 12:21:27;;;;;;;5.18;2.13;;;;;;;;;;5032584;28;20202;-82
2022/10/24 12:23:56;;;;;;;5.43;2.17;;;;;;;;;;5032352;28;20230;-82
2022/10/24 12:26:26;;;;;;;3.97;1.90;;;;;;;;;;5032435;28;20218;-82
2022/10/24 12:28:54;;;;;;;5.43;2.20;;;;;;;;;;5031524;28;20245;-82
2022/10/24 12:31:22;;;;;;;4.38;1.73;;;;;;;;;;5051520;28;20240;-82
2022/10/24 12:34:04;;;;;;;3.75;2.08;;;;;;;;;;5051548;28;20238;-82
2022/10/24 12:36:46;;;;;;;3.28;1.48;;;;;;;;;;5051526;28;20205;-81
2022/10/24 12:39:28;;;;;;;4.63;1.90;;;;;;;;;;5051576;28;20218;-82
2022/10/24 12:41:56;;;;;;;4.93;2.00;;;;;;;;;;5051658;28;20230;-81
2022/10/24 12:44:53;;;;;;;6.75;2.17;;;;;;;;;;5046448;28;20291;-78
2022/10/24 12:47:34;;;;;;;5.85;2.13;;;;;;;;;;5064202;28;20839;-78
2022/10/24 12:50:16;;;;;;;4.72;2.25;;;;;;;;;;5062509;28;20237;-78
2022/10/24 12:52:50;;;;;;;5.32;2.13;;;;;;;;;;5056561;28;20263;-79
2022/10/24 12:55:31;;;;;;;2.65;1.80;;;;;;;;;;5055878;28;20209;-79
2022/10/24 12:57:58;;;;;;;4.15;1.83;;;;;;;;;;5057845;28;20233;-79
2022/10/24 13:00:26;;;;;;;6.05;2.60;;;;;;;;;;5048622;28;20222;-79
2022/10/24 13:03:03;;;;;;;5.28;2.05;;;;;;;;;;5050967;28;20320;-80
2022/10/24 13:05:45;;;;;;;4.40;2.10;;;;;;;;;;5035324;28;20201;-79
2022/10/24 13:08:18;;;;;;;6.00;2.25;;;;;;;;;;5040612;28;20609;-79
2022/10/24 13:10:50;;;;;;;4.13;1.98;;;;;;;;;;5051055;28;20218;-78
2022/10/24 13:13:31;;;;;;;5.10;2.13;;;;;;;;;;5050945;28;20245;-78
2022/10/24 13:16:01;;;;;;;8.65;2.40;;;;;;;;;;5050988;28;20202;-80
2022/10/24 13:18:35;;;;;;;4.95;2.10;;;;;;;;;;5048655;28;20228;-79
2022/10/24 13:21:14;;;;;;;7.47;2.47;;;;;;;;;;5053347;28;20210;-78
2022/10/24 13:23:41;;;;;;;4.13;1.77;;;;;;;;;;5054433;28;20298;-78
2022/10/24 13:26:27;;;;;;;9.98;2.20;;;;;;;;;;5054728;28;20193;-79
2022/10/24 13:28:54;;;;;;;7.10;2.30;;;;;;;;;;5062250;28;20235;-79
2022/10/24 13:31:40;;;;;;;2.78;1.92;;;;;;;;;;5051219;28;20198;-79
2022/10/24 13:34:13;;;;;;;3.58;2.10;;;;;;;;;;5050717;28;20620;-78
2022/10/24 13:36:41;;;;;;;4.95;1.85;;;;;;;;;;5050121;28;20577;-78
2022/10/24 13:39:11;;;;;;;6.32;2.28;;;;;;;;;;5050760;28;20313;-82
2022/10/24 13:41:42;;;;;;;4.57;1.90;;;;;;;;;;5047203;28;20206;-81
2022/10/24 13:44:15;;;;;;;8.50;1.85;;;;;;;;;;5046322;28;20588;-82
2022/10/24 13:46:44;;;;;;;5.50;2.55;;;;;;;;;;5056168;28;20194;-82
2022/10/24 13:49:16;;;;;;;6.00;2.10;;;;;;;;;;5058582;28;20240;-81
2022/10/24 13:51:45;;;;;;;7.97;2.58;;;;;;;;;;5038922;28;20194;-82
2022/10/24 13:54:16;;;;;;;5.72;1.90;;;;;;;;;;5071235;28;20236;-82
2022/10/24 13:56:45;;;;;;;4.78;2.20;;;;;;;;;;5070638;28;20205;-82
2022/10/24 13:59:28;;;;;;;4.28;2.50;;;;;;;;;;5070797;28;20225;-81
2022/10/24 14:01:57;;;;;;;6.35;2.33;;;;;;;;;;5071789;28;20229;-82
2022/10/24 14:04:24;;;;;;;6.15;2.25;;;;;;;;;;5074855;28;20665;-82
2022/10/24 14:06:51;;;;;;;6.40;2.10;;;;;;;;;;5074273;28;20229;-83
2022/10/24 14:09:18;;;;;;;5.45;2.05;;;;;;;;;;5070859;28;20222;-82
2022/10/24 14:11:48;;;;;;;5.40;2.20;;;;;;;;;;5054559;28;20216;-82
2022/10/24 14:14:24;;;;;;;7.38;2.78;;;;;;;;;;5054436;28;20234;-82
2022/10/24 14:17:05;;;;;;;7.78;2.65;;;;;;;;;;5034008;28;20230;-82
2022/10/24 14:19:32;;;;;;;2.80;2.20;;;;;;;;;;5035118;28;20237;-81
2022/10/24 14:21:59;;;;;;;6.93;2.35;;;;;;;;;;5034944;28;20242;-82
2022/10/24 14:24:26;;;;;;;10.48;2.70;;;;;;;;;;5072294;28;20209;-82
2022/10/24 14:26:57;;;;;;;8.05;2.38;;;;;;;;;;5053893;28;20244;-82
2022/10/24 14:29:26;;;;;;;3.80;2.17;;;;;;;;;;5053095;28;20589;-82
2022/10/24 14:31:58;;;;;;;6.80;2.53;;;;;;;;;;5041978;28;20234;-81
2022/10/24 14:34:26;;;;;;;8.75;2.17;;;;;;;;;;5048285;28;20227;-82
2022/10/24 14:36:54;;;;;;;7.53;1.77;;;;;;;;;;5037717;28;20234;-82
2022/10/24 14:39:23;;;;;;;2.80;1.95;;;;;;;;;;5061067;28;20236;-82
2022/10/24 14:41:51;;;;;;;4.65;2.55;;;;;;;;;;5063085;28;20736;-81
2022/10/24 14:44:20;;;;;;;7.38;2.50;;;;;;;;;;5044845;28;20217;-81
2022/10/24 14:47:01;;;;;;;6.43;2.65;;;;;;;;;;5045454;28;20822;-82
2022/10/24 14:49:32;;;;;;;3.42;2.40;;;;;;;;;;5050936;28;20238;-80
2022/10/24 14:52:01;;;;;;;8.63;2.95;;;;;;;;;;5053496;28;20252;-81
2022/10/24 14:54:31;;;;;;;9.70;2.55;;;;;;;;;;5072707;28;20228;-82